Egham, United Kingdom
Current Conditions -  °F | °C
As of 6:50 PM on Friday 21 Nov 2014 (Local Time) from EGLL Reporting Station
Haze Haze  
Wind Chill: 42°   Ceiling: 1000
Heat Index: 46°   Visibility: 2.8mi
Dew Point: 45°   Wind: 9mph
Humidity: 93%   Direction: 90°E
Pressure: 29.97"   Gusts: NA
Location:  51.43°N, 0.55°W
Report Text: EGLL 211850Z 09008KT 4500 HZ BKN010 08/07 Q1015
Loading
Personal Weather Stations






























Interactive Weather Map New forecast layout! Learn more

10-Day Weather Forecast

Advertisements
Track Severe Weather on mobile